createdAt,value
2022-10-11T00:02:10.084Z,7.88
2022-10-11T00:07:11.710Z,8.10
2022-10-11T00:12:13.338Z,8.30
2022-10-11T00:17:14.958Z,8.57
2022-10-11T00:22:16.801Z,9.19
2022-10-11T00:27:19.324Z,10.35
2022-10-11T00:32:20.981Z,10.53
2022-10-11T00:37:22.598Z,10.67
2022-10-11T00:42:24.516Z,10.71
2022-10-11T00:47:26.098Z,10.78
2022-10-11T00:52:34.975Z,10.77
2022-10-11T00:57:41.478Z,10.89
2022-10-11T01:02:43.447Z,10.86
2022-10-11T01:07:46.916Z,10.99
2022-10-11T01:13:25.820Z,11.04
2022-10-11T01:18:49.986Z,11.13
2022-10-11T01:24:15.643Z,11.02
2022-10-11T01:29:44.960Z,10.80
2022-10-11T01:34:57.546Z,10.86
2022-10-11T01:40:06.189Z,10.92
2022-10-11T01:45:12.602Z,11.01
2022-10-11T01:50:35.650Z,11.14
2022-10-11T01:55:52.981Z,11.13
2022-10-11T02:01:03.599Z,11.07
2022-10-11T02:06:14.170Z,11.15
2022-10-11T02:11:22.247Z,11.13
2022-10-11T02:16:31.069Z,11.05
2022-10-11T02:21:36.000Z,11.01
2022-10-11T02:26:41.746Z,10.95
2022-10-11T02:31:45.162Z,10.96
2022-10-11T02:37:04.110Z,11.00
2022-10-11T02:42:12.743Z,10.86
2022-10-11T02:47:14.886Z,10.86
2022-10-11T02:52:16.458Z,10.77
2022-10-11T02:57:18.099Z,10.80
2022-10-11T03:02:19.667Z,10.71
2022-10-11T03:07:21.265Z,10.71
2022-10-11T03:12:22.967Z,10.64
2022-10-11T03:17:36.010Z,10.65
2022-10-11T03:22:38.706Z,10.59
2022-10-11T03:27:40.308Z,10.54
2022-10-11T03:32:43.479Z,10.50
2022-10-11T03:37:45.248Z,10.65
2022-10-11T03:42:46.825Z,10.63
2022-10-11T03:47:48.418Z,10.44
2022-10-11T03:52:50.138Z,10.39
2022-10-11T03:57:51.678Z,10.30
2022-10-11T04:02:53.291Z,10.23
2022-10-11T04:07:54.895Z,10.13
2022-10-11T04:12:56.461Z,10.10
2022-10-11T04:17:58.162Z,10.01
2022-10-11T04:22:59.767Z,9.96
2022-10-11T04:28:01.384Z,10.00
2022-10-11T04:33:03.085Z,9.92
2022-10-11T04:38:04.774Z,9.89
2022-10-11T04:43:06.335Z,9.90
2022-10-11T04:48:08.075Z,9.90
2022-10-11T04:53:09.627Z,9.84
2022-10-11T04:58:11.187Z,9.83
2022-10-11T05:03:12.744Z,9.72
2022-10-11T05:08:14.348Z,9.71
2022-10-11T05:13:15.888Z,9.63
2022-10-11T05:18:17.563Z,9.53
2022-10-11T05:23:19.178Z,9.50
2022-10-11T05:28:20.939Z,9.45
2022-10-11T05:33:22.625Z,9.31
2022-10-11T05:38:24.423Z,8.96
2022-10-11T05:43:26.345Z,8.82
2022-10-11T05:48:28.552Z,8.83
2022-10-11T05:53:30.294Z,8.94
2022-10-11T05:58:31.864Z,8.91
2022-10-11T06:03:33.420Z,9.03
2022-10-11T06:08:35.071Z,9.08
2022-10-11T06:13:36.943Z,9.12
2022-10-11T06:18:38.569Z,9.02
2022-10-11T06:23:40.211Z,8.87
2022-10-11T06:28:41.843Z,8.65
2022-10-11T06:33:43.451Z,8.59
2022-10-11T06:38:45.602Z,8.46
2022-10-11T06:43:49.414Z,8.54
2022-10-11T06:48:51.335Z,8.65
2022-10-11T06:53:56.726Z,8.70
2022-10-11T06:58:59.398Z,8.83
2022-10-11T07:04:01.652Z,8.96
2022-10-11T07:09:04.930Z,8.97
2022-10-11T07:14:07.968Z,9.05
2022-10-11T07:19:10.481Z,9.08
2022-10-11T07:24:12.073Z,8.95
2022-10-11T07:29:13.701Z,9.06
2022-10-11T07:34:15.925Z,9.19
2022-10-11T07:39:17.499Z,9.23
2022-10-11T07:44:19.098Z,9.31
2022-10-11T07:49:20.669Z,9.10
2022-10-11T07:54:22.220Z,9.13
2022-10-11T07:59:23.784Z,9.22
2022-10-11T08:04:26.421Z,9.48
2022-10-11T08:09:28.133Z,9.63
2022-10-11T08:14:29.728Z,9.74
2022-10-11T08:19:31.339Z,10.29
2022-10-11T08:24:37.997Z,10.24
2022-10-11T08:29:39.924Z,10.33
2022-10-11T08:34:41.554Z,10.65
2022-10-11T08:39:43.113Z,10.88
2022-10-11T08:45:10.100Z,11.10
2022-10-11T08:50:20.139Z,11.01
2022-10-11T08:55:30.738Z,10.85
2022-10-11T09:00:36.222Z,10.62
2022-10-11T09:05:57.969Z,10.66
2022-10-11T09:11:08.770Z,10.96
2022-10-11T09:16:48.873Z,11.71
2022-10-11T09:22:16.529Z,12.54
2022-10-11T09:27:33.043Z,12.37
2022-10-11T09:32:48.046Z,13.10
2022-10-11T09:38:00.684Z,11.92
2022-10-11T09:43:02.281Z,13.34
2022-10-11T09:48:07.255Z,13.80
2022-10-11T09:53:08.864Z,14.54
2022-10-11T09:58:32.588Z,14.91
2022-10-11T10:03:36.501Z,14.42
2022-10-11T10:08:38.178Z,14.53
2022-10-11T10:13:46.166Z,14.90
2022-10-11T10:19:00.028Z,15.88
2022-10-11T10:24:08.288Z,16.54
2022-10-11T10:29:09.804Z,16.62
2022-10-11T10:34:16.115Z,14.69
2022-10-11T10:39:33.755Z,13.38
2022-10-11T10:44:35.401Z,13.01
2022-10-11T10:49:54.506Z,13.93
2022-10-11T10:55:03.659Z,13.87
2022-10-11T11:00:11.460Z,17.03
2022-10-11T11:05:34.891Z,22.43
2022-10-11T11:10:43.583Z,24.82
2022-10-11T11:16:10.529Z,23.10
2022-10-11T11:21:27.108Z,21.15
2022-10-11T11:26:44.663Z,19.36
2022-10-11T11:32:21.413Z,21.12
2022-10-11T11:37:28.534Z,20.30
2022-10-11T11:42:37.122Z,21.00
2022-10-11T11:47:43.887Z,22.25
2022-10-11T11:52:48.659Z,21.29
2022-10-11T11:58:09.122Z,22.30
2022-10-11T12:03:17.094Z,22.17
2022-10-11T12:08:32.177Z,21.65
2022-10-11T12:13:37.248Z,19.32
2022-10-11T12:18:53.948Z,17.96
2022-10-11T12:23:58.878Z,16.17
2022-10-11T12:29:06.418Z,15.26
2022-10-11T12:34:07.970Z,16.94
2022-10-11T12:39:18.678Z,21.21
2022-10-11T12:44:28.688Z,24.33
2022-10-11T12:49:31.136Z,26.17
2022-10-11T12:54:57.678Z,25.75
2022-10-11T13:00:18.262Z,26.27
2022-10-11T13:05:36.459Z,25.08
2022-10-11T13:10:43.889Z,23.37
2022-10-11T13:15:46.007Z,20.18
2022-10-11T13:20:47.676Z,17.63
2022-10-11T13:25:51.109Z,15.47
2022-10-11T13:30:55.873Z,14.43
2022-10-11T13:35:58.497Z,13.66
2022-10-11T13:41:03.917Z,13.32
2022-10-11T13:46:06.064Z,13.13
2022-10-11T13:51:16.892Z,13.31
2022-10-11T13:56:19.359Z,12.95
2022-10-11T14:01:47.426Z,13.09
2022-10-11T14:06:53.590Z,13.25
2022-10-11T14:11:56.302Z,13.22
2022-10-11T14:17:04.071Z,13.31
2022-10-11T14:22:07.346Z,12.75
2022-10-11T14:27:19.265Z,12.87
2022-10-11T14:32:29.729Z,12.43
2022-10-11T14:37:31.402Z,12.44
2022-10-11T14:42:32.952Z,12.59
2022-10-11T14:47:40.554Z,12.40
2022-10-11T14:52:44.310Z,12.12
2022-10-11T14:57:46.486Z,11.91
2022-10-11T15:02:49.636Z,11.87
2022-10-11T15:07:51.737Z,11.62
2022-10-11T15:12:54.886Z,11.53
2022-10-11T15:17:58.886Z,11.32
2022-10-11T15:23:04.037Z,11.15
2022-10-11T15:28:06.478Z,10.98
2022-10-11T15:33:08.715Z,10.78
2022-10-11T15:38:18.240Z,10.59
2022-10-11T15:43:24.469Z,10.30
2022-10-11T15:48:27.107Z,10.09
2022-10-11T15:53:32.511Z,9.93
2022-10-11T15:58:36.922Z,9.70
2022-10-11T16:03:38.626Z,9.43
2022-10-11T16:08:40.356Z,9.19
2022-10-11T16:13:42.003Z,9.14
2022-10-11T16:18:43.576Z,9.02
2022-10-11T16:23:45.177Z,8.85
2022-10-11T16:28:47.994Z,8.60
2022-10-11T16:33:50.344Z,8.33
2022-10-11T16:38:51.960Z,8.08
2022-10-11T16:43:54.844Z,7.83
2022-10-11T16:48:56.492Z,7.64
2022-10-11T16:53:58.084Z,7.44
2022-10-11T16:58:59.714Z,7.24
2022-10-11T17:04:01.411Z,7.07
2022-10-11T17:09:03.746Z,6.91
2022-10-11T17:14:06.111Z,6.76
2022-10-11T17:19:15.374Z,6.64
2022-10-11T17:24:16.963Z,6.44
2022-10-11T17:29:18.629Z,6.28
2022-10-11T17:34:20.268Z,6.16
2022-10-11T17:39:23.543Z,6.05
2022-10-11T17:44:25.085Z,6.02
2022-10-11T17:49:26.695Z,5.89
2022-10-11T17:54:28.263Z,5.79
2022-10-11T17:59:31.840Z,5.72
2022-10-11T18:04:33.473Z,5.59
2022-10-11T18:09:35.063Z,5.49
2022-10-11T18:14:36.714Z,5.37
2022-10-11T18:19:38.287Z,5.31
2022-10-11T18:24:41.449Z,5.29
2022-10-11T18:29:43.536Z,5.20
2022-10-11T18:34:45.102Z,5.11
2022-10-11T18:39:46.831Z,5.03
2022-10-11T18:44:48.430Z,4.99
2022-10-11T18:49:50.031Z,4.86
2022-10-11T18:54:51.635Z,4.77
2022-10-11T18:59:53.232Z,4.75
2022-10-11T19:04:55.067Z,4.68
2022-10-11T19:09:56.890Z,4.64
2022-10-11T19:14:58.536Z,4.55
2022-10-11T19:20:00.189Z,4.48
2022-10-11T19:25:01.733Z,4.39
2022-10-11T19:30:03.660Z,4.23
2022-10-11T19:35:05.844Z,4.18
2022-10-11T19:40:08.082Z,4.10
2022-10-11T19:45:09.818Z,4.11
2022-10-11T19:50:11.443Z,4.06
2022-10-11T19:55:13.080Z,4.08
2022-10-11T20:00:14.978Z,4.06
2022-10-11T20:05:16.723Z,3.98
2022-10-11T20:10:18.427Z,3.87
2022-10-11T20:15:20.015Z,3.81
2022-10-11T20:20:21.576Z,3.74
2022-10-11T20:25:23.167Z,3.69
2022-10-11T20:30:24.807Z,3.60
2022-10-11T20:35:26.355Z,3.48
2022-10-11T20:40:27.943Z,3.50
2022-10-11T20:45:29.499Z,3.45
2022-10-11T20:50:31.085Z,3.32
2022-10-11T20:55:32.678Z,3.28
2022-10-11T21:00:34.249Z,3.21
2022-10-11T21:05:35.859Z,3.19
2022-10-11T21:10:37.927Z,3.17
2022-10-11T21:15:39.494Z,3.02
2022-10-11T21:20:42.020Z,3.03
2022-10-11T21:25:43.585Z,2.94
2022-10-11T21:30:45.278Z,2.92
2022-10-11T21:35:46.844Z,2.80
2022-10-11T21:40:48.436Z,2.80
2022-10-11T21:45:50.007Z,2.78
2022-10-11T21:50:53.141Z,2.72
2022-10-11T21:55:58.739Z,2.73
2022-10-11T22:01:00.667Z,2.71
2022-10-11T22:06:03.488Z,2.66
2022-10-11T22:11:05.942Z,2.65
2022-10-11T22:16:09.600Z,2.59
2022-10-11T22:21:22.695Z,2.50
2022-10-11T22:26:27.060Z,2.52
2022-10-11T22:31:29.565Z,2.49
2022-10-11T22:36:31.106Z,2.47
2022-10-11T22:41:32.635Z,2.51
2022-10-11T22:46:34.296Z,2.55
2022-10-11T22:51:35.913Z,2.64
2022-10-11T22:56:37.454Z,2.85
2022-10-11T23:01:39.008Z,2.93
2022-10-11T23:06:40.803Z,2.87
2022-10-11T23:11:42.426Z,2.78
2022-10-11T23:16:43.976Z,2.75
2022-10-11T23:21:46.571Z,2.70
2022-10-11T23:26:48.174Z,2.60
2022-10-11T23:31:51.320Z,2.51
2022-10-11T23:36:52.886Z,2.43
2022-10-11T23:41:54.761Z,2.33
2022-10-11T23:46:56.310Z,2.25
2022-10-11T23:51:57.888Z,2.19
2022-10-11T23:56:59.570Z,2.13
